sensor_id;sensor_type;location;lat;lon;timestamp;P1;durP1;ratioP1;P2;durP2;ratioP2
42978;SDS011;28616;44.746;19.678;2023-09-19T00:00:36;15.98;;;7.00;;
42978;SDS011;28616;44.746;19.678;2023-09-19T00:03:02;9.68;;;6.50;;
42978;SDS011;28616;44.746;19.678;2023-09-19T00:05:29;15.65;;;8.15;;
42978;SDS011;28616;44.746;19.678;2023-09-19T00:08:00;15.35;;;8.57;;
42978;SDS011;28616;44.746;19.678;2023-09-19T00:10:26;12.95;;;8.10;;
42978;SDS011;28616;44.746;19.678;2023-09-19T00:12:56;16.13;;;7.10;;
42978;SDS011;28616;44.746;19.678;2023-09-19T00:15:24;13.65;;;6.65;;
42978;SDS011;28616;44.746;19.678;2023-09-19T00:17:55;9.73;;;5.68;;
42978;SDS011;28616;44.746;19.678;2023-09-19T00:20:21;15.25;;;6.72;;
42978;SDS011;28616;44.746;19.678;2023-09-19T00:22:51;10.02;;;5.72;;
42978;SDS011;28616;44.746;19.678;2023-09-19T00:25:17;9.35;;;6.43;;
42978;SDS011;28616;44.746;19.678;2023-09-19T00:27:43;9.65;;;5.63;;
42978;SDS011;28616;44.746;19.678;2023-09-19T00:30:10;11.73;;;6.45;;
42978;SDS011;28616;44.746;19.678;2023-09-19T00:32:45;10.95;;;5.68;;
42978;SDS011;28616;44.746;19.678;2023-09-19T00:35:15;14.35;;;5.55;;
42978;SDS011;28616;44.746;19.678;2023-09-19T00:37:41;11.13;;;6.60;;
42978;SDS011;28616;44.746;19.678;2023-09-19T00:40:08;13.43;;;6.63;;
42978;SDS011;28616;44.746;19.678;2023-09-19T00:42:42;14.13;;;6.03;;
42978;SDS011;28616;44.746;19.678;2023-09-19T00:45:09;9.30;;;5.40;;
42978;SDS011;28616;44.746;19.678;2023-09-19T00:49:59;15.35;;;5.72;;
42978;SDS011;28616;44.746;19.678;2023-09-19T00:52:25;9.60;;;5.72;;
42978;SDS011;28616;44.746;19.678;2023-09-19T00:54:52;9.30;;;5.90;;
42978;SDS011;28616;44.746;19.678;2023-09-19T00:57:18;12.93;;;5.90;;
42978;SDS011;28616;44.746;19.678;2023-09-19T00:59:44;10.80;;;6.22;;
42978;SDS011;28616;44.746;19.678;2023-09-19T01:02:14;11.15;;;5.72;;
42978;SDS011;28616;44.746;19.678;2023-09-19T01:04:41;13.05;;;5.90;;
42978;SDS011;28616;44.746;19.678;2023-09-19T01:07:07;12.10;;;5.47;;
42978;SDS011;28616;44.746;19.678;2023-09-19T01:09:34;17.17;;;6.65;;
42978;SDS011;28616;44.746;19.678;2023-09-19T01:12:01;11.02;;;6.20;;
42978;SDS011;28616;44.746;19.678;2023-09-19T01:14:44;10.25;;;6.07;;
42978;SDS011;28616;44.746;19.678;2023-09-19T01:17:24;16.30;;;5.88;;
42978;SDS011;28616;44.746;19.678;2023-09-19T01:22:48;9.80;;;5.35;;
42978;SDS011;28616;44.746;19.678;2023-09-19T01:31:12;11.70;;;5.72;;
42978;SDS011;28616;44.746;19.678;2023-09-19T01:33:59;13.35;;;5.70;;
42978;SDS011;28616;44.746;19.678;2023-09-19T01:36:29;12.82;;;5.25;;
42978;SDS011;28616;44.746;19.678;2023-09-19T01:39:08;10.85;;;6.22;;
42978;SDS011;28616;44.746;19.678;2023-09-19T01:41:41;7.50;;;5.20;;
42978;SDS011;28616;44.746;19.678;2023-09-19T01:44:11;11.65;;;5.97;;
42978;SDS011;28616;44.746;19.678;2023-09-19T01:46:47;10.32;;;5.40;;
42978;SDS011;28616;44.746;19.678;2023-09-19T01:49:19;9.38;;;5.30;;
42978;SDS011;28616;44.746;19.678;2023-09-19T01:54:51;11.70;;;5.43;;
42978;SDS011;28616;44.746;19.678;2023-09-19T01:57:29;11.35;;;5.30;;
42978;SDS011;28616;44.746;19.678;2023-09-19T02:00:02;12.35;;;5.80;;
42978;SDS011;28616;44.746;19.678;2023-09-19T02:02:52;8.70;;;5.95;;
42978;SDS011;28616;44.746;19.678;2023-09-19T02:05:24;9.15;;;5.63;;
42978;SDS011;28616;44.746;19.678;2023-09-19T02:07:53;9.93;;;5.65;;
42978;SDS011;28616;44.746;19.678;2023-09-19T02:10:20;8.32;;;5.90;;
42978;SDS011;28616;44.746;19.678;2023-09-19T02:12:47;13.85;;;5.55;;
42978;SDS011;28616;44.746;19.678;2023-09-19T02:15:13;12.90;;;5.68;;
42978;SDS011;28616;44.746;19.678;2023-09-19T02:17:40;9.57;;;5.60;;
42978;SDS011;28616;44.746;19.678;2023-09-19T02:20:08;8.77;;;5.40;;
42978;SDS011;28616;44.746;19.678;2023-09-19T02:22:35;11.38;;;6.60;;
42978;SDS011;28616;44.746;19.678;2023-09-19T02:25:01;11.43;;;5.88;;
42978;SDS011;28616;44.746;19.678;2023-09-19T02:27:30;11.27;;;5.60;;
42978;SDS011;28616;44.746;19.678;2023-09-19T02:29:56;12.05;;;5.47;;
42978;SDS011;28616;44.746;19.678;2023-09-19T02:32:21;11.32;;;6.13;;
42978;SDS011;28616;44.746;19.678;2023-09-19T02:34:48;10.43;;;6.18;;
42978;SDS011;28616;44.746;19.678;2023-09-19T02:37:17;11.43;;;6.00;;
42978;SDS011;28616;44.746;19.678;2023-09-19T02:39:44;8.95;;;5.78;;
42978;SDS011;28616;44.746;19.678;2023-09-19T02:42:09;9.73;;;4.97;;
42978;SDS011;28616;44.746;19.678;2023-09-19T02:44:35;12.02;;;6.20;;
42978;SDS011;28616;44.746;19.678;2023-09-19T02:47:03;11.82;;;5.88;;
42978;SDS011;28616;44.746;19.678;2023-09-19T02:49:29;9.73;;;5.38;;
42978;SDS011;28616;44.746;19.678;2023-09-19T02:51:55;10.65;;;6.28;;
42978;SDS011;28616;44.746;19.678;2023-09-19T02:54:20;11.20;;;6.13;;
42978;SDS011;28616;44.746;19.678;2023-09-19T02:56:47;11.40;;;5.90;;
42978;SDS011;28616;44.746;19.678;2023-09-19T02:59:12;10.23;;;5.10;;
42978;SDS011;28616;44.746;19.678;2023-09-19T03:01:39;9.57;;;5.82;;
42978;SDS011;28616;44.746;19.678;2023-09-19T03:04:07;12.93;;;5.60;;
42978;SDS011;28616;44.746;19.678;2023-09-19T03:06:36;12.40;;;5.63;;
42978;SDS011;28616;44.746;19.678;2023-09-19T03:09:03;10.75;;;5.15;;
42978;SDS011;28616;44.746;19.678;2023-09-19T03:11:38;10.35;;;5.85;;
42978;SDS011;28616;44.746;19.678;2023-09-19T03:14:05;10.07;;;5.88;;
42978;SDS011;28616;44.746;19.678;2023-09-19T03:16:31;12.05;;;5.03;;
42978;SDS011;28616;44.746;19.678;2023-09-19T03:18:58;11.40;;;6.18;;
42978;SDS011;28616;44.746;19.678;2023-09-19T03:21:25;8.18;;;4.70;;
42978;SDS011;28616;44.746;19.678;2023-09-19T03:23:50;8.65;;;5.13;;
42978;SDS011;28616;44.746;19.678;2023-09-19T03:26:16;10.50;;;6.63;;
42978;SDS011;28616;44.746;19.678;2023-09-19T03:28:43;10.00;;;5.65;;
42978;SDS011;28616;44.746;19.678;2023-09-19T03:31:11;15.95;;;6.18;;
42978;SDS011;28616;44.746;19.678;2023-09-19T03:33:36;8.77;;;5.78;;
42978;SDS011;28616;44.746;19.678;2023-09-19T03:36:02;13.98;;;5.72;;
42978;SDS011;28616;44.746;19.678;2023-09-19T03:38:32;9.02;;;5.70;;
42978;SDS011;28616;44.746;19.678;2023-09-19T03:41:02;9.77;;;5.60;;
42978;SDS011;28616;44.746;19.678;2023-09-19T03:43:27;12.48;;;7.13;;
42978;SDS011;28616;44.746;19.678;2023-09-19T03:45:53;17.02;;;6.97;;
42978;SDS011;28616;44.746;19.678;2023-09-19T03:48:19;9.85;;;6.43;;
42978;SDS011;28616;44.746;19.678;2023-09-19T03:50:46;10.15;;;6.70;;
42978;SDS011;28616;44.746;19.678;2023-09-19T03:53:12;10.75;;;6.10;;
42978;SDS011;28616;44.746;19.678;2023-09-19T03:55:38;19.88;;;7.43;;
42978;SDS011;28616;44.746;19.678;2023-09-19T03:58:04;10.75;;;7.00;;
42978;SDS011;28616;44.746;19.678;2023-09-19T04:00:30;14.05;;;7.50;;
42978;SDS011;28616;44.746;19.678;2023-09-19T04:02:57;13.93;;;6.60;;
42978;SDS011;28616;44.746;19.678;2023-09-19T04:05:23;9.35;;;6.10;;
42978;SDS011;28616;44.746;19.678;2023-09-19T04:07:50;10.00;;;5.88;;
42978;SDS011;28616;44.746;19.678;2023-09-19T04:10:16;11.02;;;6.60;;
42978;SDS011;28616;44.746;19.678;2023-09-19T04:12:52;15.95;;;6.78;;
42978;SDS011;28616;44.746;19.678;2023-09-19T04:15:18;11.07;;;6.40;;
42978;SDS011;28616;44.746;19.678;2023-09-19T04:17:44;15.05;;;6.45;;
42978;SDS011;28616;44.746;19.678;2023-09-19T04:20:11;18.60;;;7.65;;
42978;SDS011;28616;44.746;19.678;2023-09-19T04:22:41;13.43;;;6.57;;
42978;SDS011;28616;44.746;19.678;2023-09-19T04:25:07;11.68;;;5.85;;
42978;SDS011;28616;44.746;19.678;2023-09-19T04:27:33;9.10;;;6.20;;
42978;SDS011;28616;44.746;19.678;2023-09-19T04:29:59;11.40;;;6.70;;
42978;SDS011;28616;44.746;19.678;2023-09-19T04:32:29;10.85;;;6.50;;
42978;SDS011;28616;44.746;19.678;2023-09-19T04:34:54;17.27;;;6.53;;
42978;SDS011;28616;44.746;19.678;2023-09-19T04:37:25;14.48;;;6.63;;
42978;SDS011;28616;44.746;19.678;2023-09-19T04:39:51;14.05;;;6.93;;
42978;SDS011;28616;44.746;19.678;2023-09-19T04:42:16;13.02;;;6.85;;
42978;SDS011;28616;44.746;19.678;2023-09-19T04:44:42;13.77;;;6.85;;
42978;SDS011;28616;44.746;19.678;2023-09-19T04:47:08;18.58;;;7.60;;
42978;SDS011;28616;44.746;19.678;2023-09-19T04:49:34;17.90;;;7.65;;
42978;SDS011;28616;44.746;19.678;2023-09-19T04:52:00;11.98;;;7.20;;
42978;SDS011;28616;44.746;19.678;2023-09-19T04:54:26;15.68;;;7.50;;
42978;SDS011;28616;44.746;19.678;2023-09-19T04:56:59;11.23;;;6.30;;
42978;SDS011;28616;44.746;19.678;2023-09-19T04:59:28;15.55;;;6.78;;
42978;SDS011;28616;44.746;19.678;2023-09-19T05:01:54;14.45;;;6.45;;
42978;SDS011;28616;44.746;19.678;2023-09-19T05:04:21;13.88;;;6.25;;
42978;SDS011;28616;44.746;19.678;2023-09-19T05:06:46;11.40;;;6.53;;
42978;SDS011;28616;44.746;19.678;2023-09-19T05:09:15;13.75;;;6.57;;
42978;SDS011;28616;44.746;19.678;2023-09-19T05:12:07;16.35;;;7.00;;
42978;SDS011;28616;44.746;19.678;2023-09-19T05:14:48;13.50;;;6.10;;
42978;SDS011;28616;44.746;19.678;2023-09-19T05:17:25;11.93;;;6.55;;
42978;SDS011;28616;44.746;19.678;2023-09-19T05:19:51;12.25;;;6.85;;
42978;SDS011;28616;44.746;19.678;2023-09-19T05:22:30;18.92;;;6.88;;
42978;SDS011;28616;44.746;19.678;2023-09-19T05:33:56;15.57;;;6.18;;
42978;SDS011;28616;44.746;19.678;2023-09-19T05:36:29;12.15;;;6.55;;
42978;SDS011;28616;44.746;19.678;2023-09-19T05:38:55;14.02;;;6.57;;
42978;SDS011;28616;44.746;19.678;2023-09-19T05:41:21;17.25;;;6.63;;
42978;SDS011;28616;44.746;19.678;2023-09-19T05:43:49;18.73;;;7.18;;
42978;SDS011;28616;44.746;19.678;2023-09-19T05:46:15;10.93;;;6.47;;
42978;SDS011;28616;44.746;19.678;2023-09-19T05:48:42;11.57;;;6.28;;
42978;SDS011;28616;44.746;19.678;2023-09-19T05:51:09;19.80;;;7.20;;
42978;SDS011;28616;44.746;19.678;2023-09-19T05:53:35;10.43;;;6.57;;
42978;SDS011;28616;44.746;19.678;2023-09-19T05:56:01;11.63;;;6.78;;
42978;SDS011;28616;44.746;19.678;2023-09-19T05:58:28;13.02;;;7.25;;
42978;SDS011;28616;44.746;19.678;2023-09-19T06:00:54;15.40;;;7.20;;
42978;SDS011;28616;44.746;19.678;2023-09-19T06:03:20;15.38;;;7.32;;
42978;SDS011;28616;44.746;19.678;2023-09-19T06:05:46;16.08;;;7.45;;
42978;SDS011;28616;44.746;19.678;2023-09-19T06:08:14;16.42;;;7.70;;
42978;SDS011;28616;44.746;19.678;2023-09-19T06:10:40;26.40;;;8.75;;
42978;SDS011;28616;44.746;19.678;2023-09-19T06:13:06;16.13;;;7.85;;
42978;SDS011;28616;44.746;19.678;2023-09-19T06:15:34;17.17;;;8.55;;
42978;SDS011;28616;44.746;19.678;2023-09-19T06:18:01;16.92;;;9.00;;
42978;SDS011;28616;44.746;19.678;2023-09-19T06:20:27;23.52;;;8.77;;
42978;SDS011;28616;44.746;19.678;2023-09-19T06:22:53;20.80;;;7.47;;
42978;SDS011;28616;44.746;19.678;2023-09-19T06:25:22;15.70;;;7.32;;
42978;SDS011;28616;44.746;19.678;2023-09-19T06:27:48;16.88;;;7.80;;
42978;SDS011;28616;44.746;19.678;2023-09-19T06:30:17;14.20;;;7.15;;
42978;SDS011;28616;44.746;19.678;2023-09-19T06:32:55;18.48;;;8.18;;
42978;SDS011;28616;44.746;19.678;2023-09-19T06:35:23;17.95;;;8.02;;
42978;SDS011;28616;44.746;19.678;2023-09-19T06:38:11;17.45;;;7.20;;
42978;SDS011;28616;44.746;19.678;2023-09-19T06:40:47;18.40;;;7.00;;
42978;SDS011;28616;44.746;19.678;2023-09-19T10:36:12;24.92;;;5.68;;
42978;SDS011;28616;44.746;19.678;2023-09-19T10:38:58;27.73;;;6.00;;
42978;SDS011;28616;44.746;19.678;2023-09-19T10:41:34;30.85;;;6.35;;
42978;SDS011;28616;44.746;19.678;2023-09-19T10:44:23;24.80;;;6.07;;
42978;SDS011;28616;44.746;19.678;2023-09-19T10:46:50;28.88;;;5.13;;
42978;SDS011;28616;44.746;19.678;2023-09-19T10:49:24;22.08;;;5.78;;
42978;SDS011;28616;44.746;19.678;2023-09-19T10:51:54;21.95;;;6.00;;
42978;SDS011;28616;44.746;19.678;2023-09-19T10:54:24;25.88;;;5.53;;
42978;SDS011;28616;44.746;19.678;2023-09-19T10:56:53;25.30;;;6.10;;
42978;SDS011;28616;44.746;19.678;2023-09-19T10:59:22;21.10;;;5.78;;
42978;SDS011;28616;44.746;19.678;2023-09-19T11:01:53;21.17;;;5.70;;
42978;SDS011;28616;44.746;19.678;2023-09-19T11:07:04;26.80;;;6.82;;
42978;SDS011;28616;44.746;19.678;2023-09-19T11:15:11;34.03;;;7.75;;
42978;SDS011;28616;44.746;19.678;2023-09-19T11:18:00;29.30;;;7.30;;
42978;SDS011;28616;44.746;19.678;2023-09-19T11:20:29;32.72;;;6.38;;
42978;SDS011;28616;44.746;19.678;2023-09-19T11:28:30;21.45;;;5.10;;
42978;SDS011;28616;44.746;19.678;2023-09-19T11:30:56;28.08;;;4.35;;
42978;SDS011;28616;44.746;19.678;2023-09-19T11:36:02;25.73;;;4.40;;
42978;SDS011;28616;44.746;19.678;2023-09-19T11:54:10;24.63;;;4.97;;
42978;SDS011;28616;44.746;19.678;2023-09-19T11:56:56;24.23;;;5.95;;
42978;SDS011;28616;44.746;19.678;2023-09-19T11:59:31;20.58;;;5.43;;
42978;SDS011;28616;44.746;19.678;2023-09-19T12:08:07;20.17;;;4.68;;
42978;SDS011;28616;44.746;19.678;2023-09-19T12:10:51;26.85;;;5.47;;
42978;SDS011;28616;44.746;19.678;2023-09-19T12:13:17;22.55;;;5.13;;
42978;SDS011;28616;44.746;19.678;2023-09-19T12:15:46;22.10;;;4.57;;
42978;SDS011;28616;44.746;19.678;2023-09-19T12:18:31;26.95;;;4.53;;
42978;SDS011;28616;44.746;19.678;2023-09-19T12:21:07;15.93;;;3.45;;
42978;SDS011;28616;44.746;19.678;2023-09-19T12:29:51;17.88;;;3.60;;
42978;SDS011;28616;44.746;19.678;2023-09-19T12:38:35;28.88;;;3.40;;
42978;SDS011;28616;44.746;19.678;2023-09-19T12:41:23;17.10;;;3.08;;
42978;SDS011;28616;44.746;19.678;2023-09-19T12:44:57;22.17;;;4.20;;
42978;SDS011;28616;44.746;19.678;2023-09-19T12:47:45;20.00;;;3.63;;
42978;SDS011;28616;44.746;19.678;2023-09-19T12:50:27;18.08;;;3.20;;
42978;SDS011;28616;44.746;19.678;2023-09-19T12:52:57;16.17;;;3.88;;
42978;SDS011;28616;44.746;19.678;2023-09-19T16:23:54;17.30;;;2.98;;
42978;SDS011;28616;44.746;19.678;2023-09-19T18:18:13;14.20;;;3.70;;
42978;SDS011;28616;44.746;19.678;2023-09-19T18:20:47;10.15;;;3.65;;
42978;SDS011;28616;44.746;19.678;2023-09-19T18:23:13;20.70;;;5.10;;
42978;SDS011;28616;44.746;19.678;2023-09-19T18:25:45;15.25;;;4.35;;
42978;SDS011;28616;44.746;19.678;2023-09-19T18:31:42;19.15;;;5.20;;
42978;SDS011;28616;44.746;19.678;2023-09-19T18:37:43;16.95;;;5.18;;
42978;SDS011;28616;44.746;19.678;2023-09-19T18:40:14;12.00;;;5.13;;
42978;SDS011;28616;44.746;19.678;2023-09-19T18:42:40;12.52;;;5.28;;
42978;SDS011;28616;44.746;19.678;2023-09-19T18:45:09;15.85;;;5.40;;
42978;SDS011;28616;44.746;19.678;2023-09-19T18:47:37;16.60;;;6.72;;
42978;SDS011;28616;44.746;19.678;2023-09-19T18:50:03;20.67;;;9.00;;
42978;SDS011;28616;44.746;19.678;2023-09-19T18:52:30;30.52;;;14.25;;
42978;SDS011;28616;44.746;19.678;2023-09-19T18:55:35;32.15;;;12.38;;
42978;SDS011;28616;44.746;19.678;2023-09-19T18:58:01;16.67;;;3.60;;
42978;SDS011;28616;44.746;19.678;2023-09-19T19:00:28;11.02;;;2.58;;
42978;SDS011;28616;44.746;19.678;2023-09-19T19:02:54;13.13;;;2.47;;
42978;SDS011;28616;44.746;19.678;2023-09-19T19:05:41;12.20;;;2.38;;
42978;SDS011;28616;44.746;19.678;2023-09-19T19:08:27;10.82;;;2.00;;
42978;SDS011;28616;44.746;19.678;2023-09-19T19:17:35;13.07;;;2.47;;
42978;SDS011;28616;44.746;19.678;2023-09-19T19:20:02;9.50;;;2.38;;
42978;SDS011;28616;44.746;19.678;2023-09-19T19:22:42;13.10;;;2.70;;
42978;SDS011;28616;44.746;19.678;2023-09-19T19:25:11;14.85;;;2.90;;
42978;SDS011;28616;44.746;19.678;2023-09-19T19:27:38;16.23;;;3.90;;
42978;SDS011;28616;44.746;19.678;2023-09-19T19:30:05;13.10;;;2.72;;
42978;SDS011;28616;44.746;19.678;2023-09-19T19:32:36;5.97;;;2.20;;
42978;SDS011;28616;44.746;19.678;2023-09-19T19:35:02;13.25;;;3.08;;
42978;SDS011;28616;44.746;19.678;2023-09-19T19:37:30;12.25;;;2.78;;
42978;SDS011;28616;44.746;19.678;2023-09-19T19:40:02;9.77;;;2.58;;
42978;SDS011;28616;44.746;19.678;2023-09-19T19:42:35;9.48;;;1.90;;
42978;SDS011;28616;44.746;19.678;2023-09-19T19:45:03;11.13;;;2.30;;
42978;SDS011;28616;44.746;19.678;2023-09-19T19:47:39;8.90;;;2.85;;
42978;SDS011;28616;44.746;19.678;2023-09-19T20:45:16;10.80;;;3.15;;
42978;SDS011;28616;44.746;19.678;2023-09-19T20:51:33;8.50;;;1.83;;
42978;SDS011;28616;44.746;19.678;2023-09-19T21:19:54;6.05;;;2.95;;
42978;SDS011;28616;44.746;19.678;2023-09-19T21:22:22;8.73;;;2.95;;
42978;SDS011;28616;44.746;19.678;2023-09-19T21:24:48;8.38;;;2.28;;
42978;SDS011;28616;44.746;19.678;2023-09-19T21:27:16;10.63;;;2.70;;
42978;SDS011;28616;44.746;19.678;2023-09-19T21:29:42;9.48;;;2.42;;
42978;SDS011;28616;44.746;19.678;2023-09-19T21:32:08;10.23;;;2.50;;
42978;SDS011;28616;44.746;19.678;2023-09-19T21:34:34;8.32;;;2.30;;
42978;SDS011;28616;44.746;19.678;2023-09-19T21:37:00;8.55;;;2.55;;
42978;SDS011;28616;44.746;19.678;2023-09-19T21:39:27;10.85;;;2.30;;
42978;SDS011;28616;44.746;19.678;2023-09-19T21:41:53;6.18;;;2.10;;
42978;SDS011;28616;44.746;19.678;2023-09-19T21:44:19;9.38;;;2.78;;
42978;SDS011;28616;44.746;19.678;2023-09-19T21:46:45;7.80;;;1.92;;
42978;SDS011;28616;44.746;19.678;2023-09-19T21:49:11;7.18;;;2.40;;
42978;SDS011;28616;44.746;19.678;2023-09-19T21:51:39;7.80;;;2.50;;
42978;SDS011;28616;44.746;19.678;2023-09-19T21:54:05;12.45;;;2.22;;
42978;SDS011;28616;44.746;19.678;2023-09-19T21:56:31;5.28;;;1.65;;
42978;SDS011;28616;44.746;19.678;2023-09-19T21:58:57;6.13;;;1.50;;
42978;SDS011;28616;44.746;19.678;2023-09-19T22:01:23;8.73;;;2.08;;
42978;SDS011;28616;44.746;19.678;2023-09-19T22:03:53;3.90;;;2.10;;
42978;SDS011;28616;44.746;19.678;2023-09-19T22:06:19;9.00;;;2.90;;
42978;SDS011;28616;44.746;19.678;2023-09-19T22:08:48;6.05;;;1.90;;
42978;SDS011;28616;44.746;19.678;2023-09-19T22:11:19;7.05;;;1.88;;
42978;SDS011;28616;44.746;19.678;2023-09-19T22:13:45;10.40;;;3.45;;
42978;SDS011;28616;44.746;19.678;2023-09-19T22:16:14;4.85;;;2.30;;
42978;SDS011;28616;44.746;19.678;2023-09-19T22:18:41;11.70;;;2.33;;
42978;SDS011;28616;44.746;19.678;2023-09-19T22:21:10;5.88;;;1.63;;
42978;SDS011;28616;44.746;19.678;2023-09-19T22:23:38;9.25;;;2.20;;
42978;SDS011;28616;44.746;19.678;2023-09-19T22:26:11;5.93;;;1.50;;
42978;SDS011;28616;44.746;19.678;2023-09-19T22:28:40;6.45;;;2.00;;
42978;SDS011;28616;44.746;19.678;2023-09-19T22:31:13;8.30;;;2.22;;
42978;SDS011;28616;44.746;19.678;2023-09-19T22:33:47;9.95;;;1.67;;
42978;SDS011;28616;44.746;19.678;2023-09-19T22:36:15;8.20;;;1.77;;
42978;SDS011;28616;44.746;19.678;2023-09-19T22:39:16;5.88;;;1.67;;
42978;SDS011;28616;44.746;19.678;2023-09-19T22:41:49;9.52;;;2.08;;
42978;SDS011;28616;44.746;19.678;2023-09-19T22:44:16;7.68;;;2.05;;
42978;SDS011;28616;44.746;19.678;2023-09-19T22:46:42;7.68;;;1.88;;
42978;SDS011;28616;44.746;19.678;2023-09-19T22:49:08;4.28;;;1.52;;
42978;SDS011;28616;44.746;19.678;2023-09-19T22:51:41;8.45;;;1.63;;
42978;SDS011;28616;44.746;19.678;2023-09-19T22:54:14;13.27;;;1.88;;
42978;SDS011;28616;44.746;19.678;2023-09-19T22:56:42;5.72;;;1.85;;
42978;SDS011;28616;44.746;19.678;2023-09-19T22:59:08;12.75;;;2.03;;
42978;SDS011;28616;44.746;19.678;2023-09-19T23:01:34;8.63;;;1.83;;
42978;SDS011;28616;44.746;19.678;2023-09-19T23:04:00;3.70;;;2.00;;
42978;SDS011;28616;44.746;19.678;2023-09-19T23:06:38;5.90;;;2.03;;
42978;SDS011;28616;44.746;19.678;2023-09-19T23:09:04;5.45;;;2.28;;
42978;SDS011;28616;44.746;19.678;2023-09-19T23:11:33;9.25;;;1.70;;
42978;SDS011;28616;44.746;19.678;2023-09-19T23:14:00;5.00;;;1.73;;
42978;SDS011;28616;44.746;19.678;2023-09-19T23:16:32;3.83;;;2.05;;
42978;SDS011;28616;44.746;19.678;2023-09-19T23:19:02;14.98;;;2.13;;
42978;SDS011;28616;44.746;19.678;2023-09-19T23:21:37;10.38;;;3.33;;
42978;SDS011;28616;44.746;19.678;2023-09-19T23:26:35;6.47;;;2.78;;
42978;SDS011;28616;44.746;19.678;2023-09-19T23:29:01;13.25;;;3.42;;
42978;SDS011;28616;44.746;19.678;2023-09-19T23:31:28;9.55;;;3.65;;
42978;SDS011;28616;44.746;19.678;2023-09-19T23:33:54;9.00;;;2.05;;
42978;SDS011;28616;44.746;19.678;2023-09-19T23:36:20;6.97;;;2.20;;
42978;SDS011;28616;44.746;19.678;2023-09-19T23:38:46;8.88;;;2.67;;
42978;SDS011;28616;44.746;19.678;2023-09-19T23:41:12;10.15;;;3.50;;
42978;SDS011;28616;44.746;19.678;2023-09-19T23:43:45;7.95;;;4.72;;
42978;SDS011;28616;44.746;19.678;2023-09-19T23:46:17;14.57;;;5.82;;
42978;SDS011;28616;44.746;19.678;2023-09-19T23:48:43;12.35;;;5.85;;
42978;SDS011;28616;44.746;19.678;2023-09-19T23:51:09;16.17;;;5.45;;
42978;SDS011;28616;44.746;19.678;2023-09-19T23:53:36;10.07;;;4.25;;
42978;SDS011;28616;44.746;19.678;2023-09-19T23:56:02;11.27;;;6.22;;
42978;SDS011;28616;44.746;19.678;2023-09-19T23:58:31;15.02;;;7.70;;
